GCTS METAR and TAF | Updated Today

GCTS METAR

Tenerife South Airport

Observation time: 15:01 hr. ago

GCTS 060430Z 36008KT 330V030 9999 FEW040 14/01 Q1023 NOSIG

Need help? Read our tutorial on how to read METARs or read the parsed version below.

Tenerife South Airport (GCTS) METAR

  • Weather conditions on Mon, 06 Feb 2023 04:30:00 +0000 (15:01 hr. ago):
  • Present conditions: Dry
  • Clouds: A few at 1219 meters
  • Visibility: Greater than 10 km
  • Wind: 360 degrees at 8 knots
  • Temperature: 14 celsius
  • Dew point: 1 celsius
  • Pressure: 1023 millibars
  • Remarks: None


Useful to know...

GCTS TAF

Tenerife South Airport

TAF GCTS 060200Z 0603/0703 36007KT 9999 SCT040 TX22/0614Z TN13/0606Z TEMPO 0609/0612 06010KT
Observation time: 17:31 hr. ago
Need help? Read our tutorial on how to read TAFs or read the parsed version below.

Parsed version of TAF for Tenerife South Airport (GCTS)

  • From 06 February at 03:00 UTC, to day 07 of the month at 03:00 UTC
  • Clouds: Scattered at 1219 meters
  • Visibility: Greater than 10 km
  • Wind: 360 degrees at 7
  • Expected to arise temporarily, from 06 February at 09:00 UTC, to day 06 of the month at 12:00 UTC
  • Wind: 60 degrees at 10

Airports near GCTS

GCGM Weather
Region: Alajero, La Gomera Island

La Gomera Airport

Not found in our database
GCXO Weather
IATA: TFN
Region: Tenerife Island

Tenerife Norte Airport

Found in our database